M. Luther — WDC7372 — position and weather

sailwx.info

Track history (hours):
 
Tides and Currents Weather Stations Pressure Air Temp Water Temp Dewpoint Dewpoint Depression Visibility Wind Speed Wind Dir Waves Ship Positions

M. Luther

Owner: Salmon Bay Barge Line, Inc., Seattle, WA. More information available from US FCC via Universal Licensing System and Coast Guard Vessel Documentation Center.

Last reported at 2016-Jul-24 15:33 UTC. Time now 2016-Jul-30 16:51 UTC.
Position N 47°33' W 122°21'.

Length 28 m; draft 4.1 m.

Type: Tug. MMSI: 367070410.

Date/timePositionNaut miles runAvg speedWind from/ knotsBaromVisibWave heightAir tempDewpointWater temp
2016-Jul-24 15:33N 47°33' W 122°21'4 4.0
2016-Jul-24 14:33N 47°37' W 122°24'5 4.8
2016-Jul-24 13:33N 47°40' W 122°28'5 4.6
2016-Jul-24 12:33N 47°45' W 122°27'4 4.1
2016-Jul-24 11:33N 47°49' W 122°28'4 4.2
2016-Jul-24 10:33N 47°53' W 122°30'4 4.4
2016-Jul-24 09:33N 47°57' W 122°34'4 4.3
2016-Jul-24 08:33N 48°00' W 122°38'4 3.8
2016-Jul-24 07:32N 48°04' W 122°40'4 3.6
2016-Jul-24 06:32N 48°07' W 122°41'4 4.3
2016-Jul-24 05:31N 48°10' W 122°46'7 6.3
2016-Jul-24 04:27N 48°17' W 122°48'6 6.8
2016-Jul-24 03:32N 48°23' W 122°46'6 5.7
2016-Jul-24 02:33N 48°28' W 122°45'4 3.7
2016-Jul-24 01:33N 48°32' W 122°45'3 2.7
2016-Jul-24 00:33N 48°35' W 122°45'3 3.4
2016-Jul-23 23:33N 48°38' W 122°44'4 4.1
2016-Jul-23 22:33N 48°42' W 122°45'5 5.1
2016-Jul-23 21:33N 48°46' W 122°50'7 6.9
2016-Jul-23 20:33N 48°50' W 122°59'7 6.9
2016-Jul-23 19:33N 48°54' W 123°07'7 7.5
2016-Jul-23 18:34N 48°59' W 123°16'7 6.6
2016-Jul-23 17:33N 49°05' W 123°20'6 5.7
2016-Jul-23 16:33N 49°08' W 123°13'6 5.9
2016-Jul-23 15:33N 49°08' W 123°04'3 2.8
2016-Jul-23 14:33N 49°09' W 123°00'0 0.0
2016-Jul-23 13:32N 49°09' W 123°00'0 0.0
2016-Jul-23 12:14N 49°09' W 123°00'0 0.0
2016-Jul-23 09:32N 49°09' W 123°00'0 0.0
2016-Jul-23 08:26N 49°09' W 123°00'0 0.0
2016-Jul-23 07:32N 49°09' W 123°00'0 0.0
2016-Jul-23 06:29N 49°09' W 123°00'0 0.0
2016-Jul-23 04:32N 49°09' W 123°00'0 0.0
2016-Jul-23 03:32N 49°09' W 123°00'0 0.0
2016-Jul-23 02:32N 49°09' W 123°00'0 0.0
2016-Jul-23 01:26N 49°09' W 123°00'0 0.0
2016-Jul-23 00:29N 49°09' W 123°00'0 0.0
2016-Jul-22 23:32N 49°09' W 123°00'0 0.0
2016-Jul-22 22:32N 49°09' W 123°00'0 0.0
2016-Jul-22 21:32N 49°09' W 123°00'0 0.0
2016-Jul-22 19:32N 49°09' W 123°00'0 0.0
2016-Jul-22 18:32N 49°09' W 123°00'0 0.0
2016-Jul-22 17:32N 49°09' W 123°00'0 0.0
2016-Jul-22 16:32N 49°09' W 123°00'0 0.0
2016-Jul-22 15:23N 49°09' W 123°00'0 0.0
2016-Jul-22 14:32N 49°09' W 123°00'0 0.0
2016-Jul-22 13:29N 49°09' W 123°00'0 0.0
2016-Jul-22 12:32N 49°09' W 123°00'0 0.0
2016-Jul-22 11:32N 49°09' W 123°00'0 0.0
2016-Jul-22 10:20N 49°09' W 123°00'0 0.0
2016-Jul-22 09:32N 49°09' W 123°00'0 0.0
2016-Jul-22 08:32N 49°09' W 123°00'0 0.0
2016-Jul-22 07:32N 49°09' W 123°00'0 0.0
2016-Jul-22 04:31N 49°09' W 123°00'0 0.0
2016-Jul-22 03:31N 49°09' W 123°00'0 0.0
2016-Jul-22 02:31N 49°09' W 123°00'0 0.0
2016-Jul-22 01:31N 49°09' W 123°00'0 0.0
2016-Jul-22 00:22N 49°09' W 123°00'0 0.0
2016-Jul-21 23:31N 49°09' W 123°00'0 0.0
2016-Jul-21 22:28N 49°09' W 123°00'0 0.0
2016-Jul-21 21:28N 49°09' W 123°00'0 0.0
2016-Jul-21 20:31N 49°09' W 123°00'0 0.0
2016-Jul-21 19:28N 49°09' W 123°00'0 0.0
2016-Jul-21 13:21N 49°09' W 123°00'2 2.1
2016-Jul-21 12:32N 49°09' W 123°03'6 6.1
2016-Jul-21 11:33N 49°07' W 123°12'5 5.4
2016-Jul-21 10:33N 49°06' W 123°19'7 6.4
2016-Jul-21 09:29N 49°00' W 123°13'8 8.5
2016-Jul-21 08:33N 48°55' W 123°04'10 8.7
2016-Jul-21 07:24N 48°48' W 122°52'7 8.2
2016-Jul-21 06:33N 48°44' W 122°44'7 6.5
2016-Jul-21 05:33N 48°37' W 122°44'7 7.0
2016-Jul-21 04:33N 48°30' W 122°44'9 8.4
2016-Jul-21 03:32N 48°22' W 122°44'21 6.5
2016-Jul-21 00:19N 48°02' W 122°37'4 5.7
2016-Jul-20 23:33N 47°58' W 122°34'7 6.6
2016-Jul-20 22:33N 47°52' W 122°28'8 8.0
2016-Jul-20 21:34N 47°45' W 122°26'7 7.4
2016-Jul-20 20:33N 47°37' W 122°25'3 3.4
2016-Jul-20 19:33N 47°34' W 122°21'1 1.2
2016-Jul-20 18:31N 47°33' W 122°21'0 0.0
2016-Jul-20 17:32N 47°33' W 122°21'0 0.0
2016-Jul-20 16:29N 47°33' W 122°21'0 0.0
2016-Jul-20 15:32N 47°33' W 122°21'0 0.0
2016-Jul-20 14:31N 47°33' W 122°21'0 0.0
2016-Jul-20 13:31N 47°33' W 122°21'0 0.0
2016-Jul-20 12:31N 47°33' W 122°21'0 0.0
2016-Jul-20 11:31N 47°33' W 122°21'0 0.0
2016-Jul-20 10:31N 47°33' W 122°21'0 0.0
2016-Jul-20 09:31N 47°33' W 122°21'0 0.0
2016-Jul-20 08:31N 47°33' W 122°21'0 0.0
2016-Jul-20 07:32N 47°33' W 122°21'0 0.0
2016-Jul-20 06:31N 47°33' W 122°21'0 0.0
2016-Jul-20 05:29N 47°33' W 122°21'0 0.0
2016-Jul-20 04:31N 47°33' W 122°21'0 0.0
2016-Jul-20 03:31N 47°33' W 122°21'0 0.0
2016-Jul-20 02:28N 47°33' W 122°21'0 0.0
2016-Jul-20 01:31N 47°33' W 122°21'0 0.0
2016-Jul-20 00:25N 47°33' W 122°21'0 0.0
2016-Jul-19 23:31N 47°33' W 122°21'0 0.0
2016-Jul-19 22:31N 47°33' W 122°21'0 0.0
2016-Jul-19 21:28N 47°33' W 122°21'0 0.0
2016-Jul-19 20:31N 47°33' W 122°21'0 0.0
2016-Jul-19 19:31N 47°33' W 122°21'0 0.0
2016-Jul-19 18:31N 47°33' W 122°21'0 0.0
2016-Jul-19 17:31N 47°33' W 122°21'0 0.0
2016-Jul-19 16:25N 47°33' W 122°21'0 0.0
2016-Jul-19 15:33N 47°33' W 122°21'0 0.0
2016-Jul-19 14:31N 47°33' W 122°21'0 0.0
2016-Jul-19 13:33N 47°33' W 122°21'0 0.0
2016-Jul-19 12:30N 47°33' W 122°21'0 0.0
2016-Jul-19 11:33N 47°33' W 122°21'0 0.0
2016-Jul-19 10:30N 47°33' W 122°21'0 0.0
2016-Jul-19 09:33N 47°33' W 122°21'0 0.0
2016-Jul-19 08:33N 47°33' W 122°21'0 0.0
2016-Jul-19 07:33N 47°33' W 122°21'0 0.0
2016-Jul-19 04:33N 47°33' W 122°21'0 0.0
2016-Jul-19 03:33N 47°33' W 122°21'0 0.0
2016-Jul-19 02:33N 47°33' W 122°21'0 0.0
2016-Jul-19 01:33N 47°33' W 122°21'0 0.0
2016-Jul-19 00:33N 47°33' W 122°21'0 0.0
2016-Jul-18 23:30N 47°33' W 122°21'0 0.0
2016-Jul-18 22:30N 47°33' W 122°21'0 0.0
2016-Jul-18 21:33N 47°33' W 122°21'0 0.0
2016-Jul-18 20:33N 47°33' W 122°21'0 0.0
2016-Jul-18 19:33N 47°33' W 122°21'0 0.0
2016-Jul-18 18:30N 47°33' W 122°21'2 2.1
2016-Jul-18 17:32N 47°35' W 122°21'2 1.7
2016-Jul-18 16:33N 47°34' W 122°21'0 0.0
2016-Jul-16 16:17N 47°33' W 122°21'1 1.4
2016-Jul-16 15:33N 47°34' W 122°21'4 3.8
2016-Jul-16 14:34N 47°37' W 122°25'3 3.4
2016-Jul-16 13:33N 47°40' W 122°28'6 6.4
2016-Jul-16 12:33N 47°46' W 122°27'7 6.6
2016-Jul-16 11:33N 47°52' W 122°30'6 5.6
2016-Jul-16 10:33N 47°57' W 122°34'14 6.7
2016-Jul-16 08:24N 48°10' W 122°44'8 6.5
2016-Jul-16 07:12N 48°17' W 122°48'5 7.1
2016-Jul-16 06:33N 48°22' W 122°46'14 7.1
2016-Jul-16 04:33N 48°36' W 122°46'8 7.5
2016-Jul-16 03:33N 48°43' W 122°46'7 6.9
2016-Jul-16 02:33N 48°48' W 122°54'8 8.0
2016-Jul-16 01:33N 48°52' W 123°04'7 7.5
2016-Jul-16 00:33N 48°57' W 123°13'8 7.6
2016-Jul-15 23:33N 49°02' W 123°21'5 5.5
2016-Jul-15 22:34N 49°07' W 123°16'6 5.7
2016-Jul-15 21:34N 49°07' W 123°08'  
Track history (hours):
 
Tides and Currents Weather Stations Pressure Air Temp Water Temp Dewpoint Dewpoint Depression Visibility Wind Speed Wind Dir Waves Ship Positions

M. Luther

Owner: Salmon Bay Barge Line, Inc., Seattle, WA. More information available from US FCC via Universal Licensing System and Coast Guard Vessel Documentation Center.

Last reported at 2016-Jul-24 15:33 UTC. Time now 2016-Jul-30 16:51 UTC.
Position N 47°33' W 122°21'.

Length 28 m; draft 4.1 m.

Type: Tug. MMSI: 367070410.

Date/timePositionNaut miles runAvg speedWind from/ knotsBaromVisibWave heightAir tempDewpointWater temp
2016-Jul-24 15:33N 47°33' W 122°21'4 4.0
2016-Jul-24 14:33N 47°37' W 122°24'5 4.8
2016-Jul-24 13:33N 47°40' W 122°28'5 4.6
2016-Jul-24 12:33N 47°45' W 122°27'4 4.1
2016-Jul-24 11:33N 47°49' W 122°28'4 4.2
2016-Jul-24 10:33N 47°53' W 122°30'4 4.4
2016-Jul-24 09:33N 47°57' W 122°34'4 4.3
2016-Jul-24 08:33N 48°00' W 122°38'4 3.8
2016-Jul-24 07:32N 48°04' W 122°40'4 3.6
2016-Jul-24 06:32N 48°07' W 122°41'4 4.3
2016-Jul-24 05:31N 48°10' W 122°46'7 6.3
2016-Jul-24 04:27N 48°17' W 122°48'6 6.8
2016-Jul-24 03:32N 48°23' W 122°46'6 5.7
2016-Jul-24 02:33N 48°28' W 122°45'4 3.7
2016-Jul-24 01:33N 48°32' W 122°45'3 2.7
2016-Jul-24 00:33N 48°35' W 122°45'3 3.4
2016-Jul-23 23:33N 48°38' W 122°44'4 4.1
2016-Jul-23 22:33N 48°42' W 122°45'5 5.1
2016-Jul-23 21:33N 48°46' W 122°50'7 6.9
2016-Jul-23 20:33N 48°50' W 122°59'7 6.9
2016-Jul-23 19:33N 48°54' W 123°07'7 7.5
2016-Jul-23 18:34N 48°59' W 123°16'7 6.6
2016-Jul-23 17:33N 49°05' W 123°20'6 5.7
2016-Jul-23 16:33N 49°08' W 123°13'6 5.9
2016-Jul-23 15:33N 49°08' W 123°04'3 2.8
2016-Jul-23 14:33N 49°09' W 123°00'0 0.0
2016-Jul-23 13:32N 49°09' W 123°00'0 0.0
2016-Jul-23 12:14N 49°09' W 123°00'0 0.0
2016-Jul-23 09:32N 49°09' W 123°00'0 0.0
2016-Jul-23 08:26N 49°09' W 123°00'0 0.0
2016-Jul-23 07:32N 49°09' W 123°00'0 0.0
2016-Jul-23 06:29N 49°09' W 123°00'0 0.0
2016-Jul-23 04:32N 49°09' W 123°00'0 0.0
2016-Jul-23 03:32N 49°09' W 123°00'0 0.0
2016-Jul-23 02:32N 49°09' W 123°00'0 0.0
2016-Jul-23 01:26N 49°09' W 123°00'0 0.0
2016-Jul-23 00:29N 49°09' W 123°00'0 0.0
2016-Jul-22 23:32N 49°09' W 123°00'0 0.0
2016-Jul-22 22:32N 49°09' W 123°00'0 0.0
2016-Jul-22 21:32N 49°09' W 123°00'0 0.0
2016-Jul-22 19:32N 49°09' W 123°00'0 0.0
2016-Jul-22 18:32N 49°09' W 123°00'0 0.0
2016-Jul-22 17:32N 49°09' W 123°00'0 0.0
2016-Jul-22 16:32N 49°09' W 123°00'0 0.0
2016-Jul-22 15:23N 49°09' W 123°00'0 0.0
2016-Jul-22 14:32N 49°09' W 123°00'0 0.0
2016-Jul-22 13:29N 49°09' W 123°00'0 0.0
2016-Jul-22 12:32N 49°09' W 123°00'0 0.0
2016-Jul-22 11:32N 49°09' W 123°00'0 0.0
2016-Jul-22 10:20N 49°09' W 123°00'0 0.0
2016-Jul-22 09:32N 49°09' W 123°00'0 0.0
2016-Jul-22 08:32N 49°09' W 123°00'0 0.0
2016-Jul-22 07:32N 49°09' W 123°00'0 0.0
2016-Jul-22 04:31N 49°09' W 123°00'0 0.0
2016-Jul-22 03:31N 49°09' W 123°00'0 0.0
2016-Jul-22 02:31N 49°09' W 123°00'0 0.0
2016-Jul-22 01:31N 49°09' W 123°00'0 0.0
2016-Jul-22 00:22N 49°09' W 123°00'0 0.0
2016-Jul-21 23:31N 49°09' W 123°00'0 0.0
2016-Jul-21 22:28N 49°09' W 123°00'0 0.0
2016-Jul-21 21:28N 49°09' W 123°00'0 0.0
2016-Jul-21 20:31N 49°09' W 123°00'0 0.0
2016-Jul-21 19:28N 49°09' W 123°00'0 0.0
2016-Jul-21 13:21N 49°09' W 123°00'2 2.1
2016-Jul-21 12:32N 49°09' W 123°03'6 6.1
2016-Jul-21 11:33N 49°07' W 123°12'5 5.4
2016-Jul-21 10:33N 49°06' W 123°19'7 6.4
2016-Jul-21 09:29N 49°00' W 123°13'8 8.5
2016-Jul-21 08:33N 48°55' W 123°04'10 8.7
2016-Jul-21 07:24N 48°48' W 122°52'7 8.2
2016-Jul-21 06:33N 48°44' W 122°44'7 6.5
2016-Jul-21 05:33N 48°37' W 122°44'7 7.0
2016-Jul-21 04:33N 48°30' W 122°44'9 8.4
2016-Jul-21 03:32N 48°22' W 122°44'21 6.5
2016-Jul-21 00:19N 48°02' W 122°37'4 5.7
2016-Jul-20 23:33N 47°58' W 122°34'7 6.6
2016-Jul-20 22:33N 47°52' W 122°28'8 8.0
2016-Jul-20 21:34N 47°45' W 122°26'7 7.4
2016-Jul-20 20:33N 47°37' W 122°25'3 3.4
2016-Jul-20 19:33N 47°34' W 122°21'1 1.2
2016-Jul-20 18:31N 47°33' W 122°21'0 0.0
2016-Jul-20 17:32N 47°33' W 122°21'0 0.0
2016-Jul-20 16:29N 47°33' W 122°21'0 0.0
2016-Jul-20 15:32N 47°33' W 122°21'0 0.0
2016-Jul-20 14:31N 47°33' W 122°21'0 0.0
2016-Jul-20 13:31N 47°33' W 122°21'0 0.0
2016-Jul-20 12:31N 47°33' W 122°21'0 0.0
2016-Jul-20 11:31N 47°33' W 122°21'0 0.0
2016-Jul-20 10:31N 47°33' W 122°21'0 0.0
2016-Jul-20 09:31N 47°33' W 122°21'0 0.0
2016-Jul-20 08:31N 47°33' W 122°21'0 0.0
2016-Jul-20 07:32N 47°33' W 122°21'0 0.0
2016-Jul-20 06:31N 47°33' W 122°21'0 0.0
2016-Jul-20 05:29N 47°33' W 122°21'0 0.0
2016-Jul-20 04:31N 47°33' W 122°21'0 0.0
2016-Jul-20 03:31N 47°33' W 122°21'0 0.0
2016-Jul-20 02:28N 47°33' W 122°21'0 0.0
2016-Jul-20 01:31N 47°33' W 122°21'0 0.0
2016-Jul-20 00:25N 47°33' W 122°21'0 0.0
2016-Jul-19 23:31N 47°33' W 122°21'0 0.0
2016-Jul-19 22:31N 47°33' W 122°21'0 0.0
2016-Jul-19 21:28N 47°33' W 122°21'0 0.0
2016-Jul-19 20:31N 47°33' W 122°21'0 0.0
2016-Jul-19 19:31N 47°33' W 122°21'0 0.0
2016-Jul-19 18:31N 47°33' W 122°21'0 0.0
2016-Jul-19 17:31N 47°33' W 122°21'0 0.0
2016-Jul-19 16:25N 47°33' W 122°21'0 0.0
2016-Jul-19 15:33N 47°33' W 122°21'0 0.0
2016-Jul-19 14:31N 47°33' W 122°21'0 0.0
2016-Jul-19 13:33N 47°33' W 122°21'0 0.0
2016-Jul-19 12:30N 47°33' W 122°21'0 0.0
2016-Jul-19 11:33N 47°33' W 122°21'0 0.0
2016-Jul-19 10:30N 47°33' W 122°21'0 0.0
2016-Jul-19 09:33N 47°33' W 122°21'0 0.0
2016-Jul-19 08:33N 47°33' W 122°21'0 0.0
2016-Jul-19 07:33N 47°33' W 122°21'0 0.0
2016-Jul-19 04:33N 47°33' W 122°21'0 0.0
2016-Jul-19 03:33N 47°33' W 122°21'0 0.0
2016-Jul-19 02:33N 47°33' W 122°21'0 0.0
2016-Jul-19 01:33N 47°33' W 122°21'0 0.0
2016-Jul-19 00:33N 47°33' W 122°21'0 0.0
2016-Jul-18 23:30N 47°33' W 122°21'0 0.0
2016-Jul-18 22:30N 47°33' W 122°21'0 0.0
2016-Jul-18 21:33N 47°33' W 122°21'0 0.0
2016-Jul-18 20:33N 47°33' W 122°21'0 0.0
2016-Jul-18 19:33N 47°33' W 122°21'0 0.0
2016-Jul-18 18:30N 47°33' W 122°21'2 2.1
2016-Jul-18 17:32N 47°35' W 122°21'2 1.7
2016-Jul-18 16:33N 47°34' W 122°21'0 0.0
2016-Jul-16 16:17N 47°33' W 122°21'1 1.4
2016-Jul-16 15:33N 47°34' W 122°21'4 3.8
2016-Jul-16 14:34N 47°37' W 122°25'3 3.4
2016-Jul-16 13:33N 47°40' W 122°28'6 6.4
2016-Jul-16 12:33N 47°46' W 122°27'7 6.6
2016-Jul-16 11:33N 47°52' W 122°30'6 5.6
2016-Jul-16 10:33N 47°57' W 122°34'14 6.7
2016-Jul-16 08:24N 48°10' W 122°44'8 6.5
2016-Jul-16 07:12N 48°17' W 122°48'5 7.1
2016-Jul-16 06:33N 48°22' W 122°46'14 7.1
2016-Jul-16 04:33N 48°36' W 122°46'8 7.5
2016-Jul-16 03:33N 48°43' W 122°46'7 6.9
2016-Jul-16 02:33N 48°48' W 122°54'8 8.0
2016-Jul-16 01:33N 48°52' W 123°04'7 7.5
2016-Jul-16 00:33N 48°57' W 123°13'8 7.6
2016-Jul-15 23:33N 49°02' W 123°21'5 5.5
2016-Jul-15 22:34N 49°07' W 123°16'6 5.7
2016-Jul-15 21:34N 49°07' W 123°08'  

Dump ship's entire track history